createdAt,value
2019-04-14T00:00:42.679Z,0.0000
2019-04-14T00:01:45.521Z,0.0000
2019-04-14T00:02:49.137Z,0.0000
2019-04-14T00:03:52.293Z,0.0000
2019-04-14T00:04:56.991Z,0.0000
2019-04-14T00:06:00.541Z,0.0000
2019-04-14T00:07:04.044Z,0.0000
2019-04-14T00:08:08.849Z,0.0000
2019-04-14T00:09:12.302Z,0.0000
2019-04-14T00:10:16.091Z,0.0000
2019-04-14T00:11:21.160Z,0.0000
2019-04-14T00:12:25.329Z,0.0000
2019-04-14T00:13:28.525Z,0.0000
2019-04-14T00:14:31.476Z,0.0000
2019-04-14T00:15:39.614Z,0.0000
2019-04-14T00:16:44.520Z,0.0000
2019-04-14T00:17:47.893Z,0.0000
2019-04-14T00:18:51.348Z,0.0000
2019-04-14T00:19:56.584Z,0.0000
2019-04-14T00:20:59.881Z,0.0000
2019-04-14T00:22:05.182Z,0.0000
2019-04-14T00:23:09.098Z,0.0000
2019-04-14T00:24:12.309Z,0.0000
2019-04-14T00:25:17.320Z,0.0000
2019-04-14T00:26:20.500Z,0.0000
2019-04-14T00:27:23.625Z,0.0000
2019-04-14T00:28:27.123Z,0.0000
2019-04-14T00:29:30.611Z,0.0000
2019-04-14T00:30:33.786Z,0.0000
2019-04-14T00:31:37.323Z,0.0000
2019-04-14T00:32:40.288Z,0.0000
2019-04-14T00:33:43.320Z,0.0000
2019-04-14T00:34:46.497Z,0.0000
2019-04-14T00:35:49.563Z,0.0000
2019-04-14T00:36:52.366Z,0.0000
2019-04-14T00:37:55.825Z,0.0000
2019-04-14T00:39:00.930Z,0.0000
2019-04-14T00:40:04.328Z,0.0000
2019-04-14T00:41:07.296Z,0.0000
2019-04-14T00:42:10.308Z,0.0000
2019-04-14T00:43:13.500Z,0.0000
2019-04-14T00:44:16.772Z,0.0000
2019-04-14T00:45:32.243Z,0.0000
2019-04-14T00:46:30.873Z,0.0000
2019-04-14T00:47:49.834Z,0.0000
2019-04-14T00:48:47.305Z,0.0000
2019-04-14T00:49:49.277Z,0.0000
2019-04-14T00:50:53.904Z,0.0000
2019-04-14T00:51:59.184Z,0.0000
2019-04-14T00:53:03.505Z,0.0000
2019-04-14T00:54:06.622Z,0.0000
2019-04-14T00:55:09.719Z,0.0000
2019-04-14T00:56:13.286Z,0.0000
2019-04-14T00:57:17.999Z,0.0000
2019-04-14T00:58:23.678Z,0.0000
2019-04-14T00:59:26.829Z,0.0000
2019-04-14T01:00:31.933Z,0.0000
2019-04-14T01:01:37.177Z,0.0000
2019-04-14T01:02:40.729Z,0.0000
2019-04-14T01:03:44.075Z,0.0000
2019-04-14T01:04:49.020Z,0.0000
2019-04-14T01:05:52.628Z,0.0000
2019-04-14T01:06:55.510Z,0.0000
2019-04-14T01:07:58.785Z,0.0000
2019-04-14T01:09:02.325Z,0.0000
2019-04-14T01:10:04.330Z,0.0000
2019-04-14T01:11:08.026Z,0.0000
2019-04-14T01:12:12.802Z,0.0000
2019-04-14T01:13:16.287Z,0.0000
2019-04-14T01:14:19.320Z,0.0000
2019-04-14T01:15:23.060Z,0.0000
2019-04-14T01:16:27.050Z,0.0000
2019-04-14T01:17:31.282Z,0.0000
2019-04-14T01:18:34.291Z,0.0000
2019-04-14T01:19:37.300Z,0.0000
2019-04-14T01:20:40.640Z,0.0000
2019-04-14T01:21:43.603Z,0.0000
2019-04-14T01:22:46.597Z,0.0000
2019-04-14T01:23:50.142Z,0.0000
2019-04-14T01:24:53.380Z,0.0000
2019-04-14T01:25:56.318Z,0.0000
2019-04-14T01:26:59.552Z,0.0000
2019-04-14T01:28:02.490Z,0.0000
2019-04-14T01:29:06.064Z,0.0000
2019-04-14T01:30:11.180Z,0.0000
2019-04-14T01:31:14.307Z,0.0000
2019-04-14T01:32:17.620Z,0.0000
2019-04-14T01:33:20.544Z,0.0000
2019-04-14T01:34:24.041Z,0.0000
2019-04-14T01:35:29.181Z,0.0000
2019-04-14T01:36:32.269Z,0.0000
2019-04-14T01:37:35.704Z,0.0000
2019-04-14T01:38:39.061Z,0.0000
2019-04-14T01:39:43.529Z,0.0000
2019-04-14T01:40:46.781Z,0.0000
2019-04-14T01:41:50.311Z,0.0000
2019-04-14T01:42:54.835Z,0.0000
2019-04-14T01:43:58.374Z,0.0000
2019-04-14T01:45:01.940Z,0.0000
2019-04-14T01:46:14.837Z,0.0000
2019-04-14T01:47:13.772Z,0.0000
2019-04-14T01:48:17.097Z,0.0000
2019-04-14T01:49:20.372Z,0.0000
2019-04-14T01:50:23.519Z,0.0000
2019-04-14T01:51:27.000Z,0.0000
2019-04-14T01:52:30.566Z,0.0000
2019-04-14T01:53:33.615Z,0.0000
2019-04-14T01:54:36.901Z,0.0000
2019-04-14T01:55:40.285Z,0.0000
2019-04-14T01:56:43.265Z,0.0000
2019-04-14T01:57:46.286Z,0.0000
2019-04-14T01:58:49.305Z,0.0000
2019-04-14T01:59:52.945Z,0.0000
2019-04-14T02:00:56.018Z,0.0000
2019-04-14T02:01:59.288Z,0.0000
2019-04-14T02:03:04.051Z,0.0000
2019-04-14T02:04:07.356Z,0.0000
2019-04-14T02:05:10.320Z,0.0000
2019-04-14T02:06:13.603Z,0.0000
2019-04-14T02:07:16.599Z,0.0000
2019-04-14T02:08:18.325Z,0.0000
2019-04-14T02:09:20.832Z,0.0000
2019-04-14T02:10:24.347Z,0.0000
2019-04-14T02:11:29.095Z,0.0000
2019-04-14T02:12:32.429Z,0.0000
2019-04-14T02:13:35.499Z,0.0000
2019-04-14T02:14:38.909Z,0.0000
2019-04-14T02:15:42.298Z,0.0000
2019-04-14T02:16:50.872Z,0.0000
2019-04-14T02:17:54.636Z,0.0000
2019-04-14T02:18:58.530Z,0.0000
2019-04-14T02:20:03.216Z,0.0000
2019-04-14T02:21:06.988Z,0.0000
2019-04-14T02:22:11.579Z,0.0000
2019-04-14T02:23:14.673Z,0.0000
2019-04-14T02:24:17.850Z,0.0000
2019-04-14T02:25:21.330Z,0.0000
2019-04-14T02:26:26.153Z,0.0000
2019-04-14T02:27:30.087Z,0.0000
2019-04-14T02:28:33.327Z,0.0000
2019-04-14T02:29:38.291Z,0.0000
2019-04-14T02:30:55.982Z,0.0000
2019-04-14T02:32:23.695Z,0.0000
2019-04-14T02:33:33.722Z,0.0000
2019-04-14T02:34:49.365Z,0.0000
2019-04-14T02:35:50.620Z,0.0000
2019-04-14T02:37:04.478Z,0.0000
2019-04-14T02:38:03.579Z,0.0000
2019-04-14T02:39:06.418Z,0.0000
2019-04-14T02:40:24.860Z,0.0000
2019-04-14T02:41:33.682Z,0.0000
2019-04-14T02:43:39.150Z,0.0000
2019-04-14T02:44:45.781Z,0.0000
2019-04-14T02:45:59.330Z,0.0000
2019-04-14T02:47:13.983Z,0.0000
2019-04-14T02:48:28.519Z,0.0000
2019-04-14T02:49:19.155Z,0.0000
2019-04-14T02:50:23.232Z,0.0000
2019-04-14T02:51:33.536Z,0.0000
2019-04-14T02:52:45.152Z,0.0000
2019-04-14T02:54:03.133Z,0.0000
2019-04-14T02:55:01.515Z,0.0000
2019-04-14T02:56:15.831Z,0.0000
2019-04-14T02:57:20.457Z,0.0000
2019-04-14T02:58:26.652Z,0.0000
2019-04-14T02:59:26.879Z,0.0000
2019-04-14T03:01:01.881Z,0.0000
2019-04-14T03:02:19.566Z,0.0000
2019-04-14T03:02:48.798Z,0.0000
2019-04-14T03:03:57.003Z,0.0000
2019-04-14T03:05:09.632Z,0.0000
2019-04-14T03:06:17.780Z,0.0000
2019-04-14T03:09:42.231Z,0.0000
2019-04-14T03:12:02.927Z,0.0000
2019-04-14T03:13:15.598Z,0.0000
2019-04-14T03:14:21.424Z,0.0000
2019-04-14T03:15:29.495Z,0.0000
2019-04-14T03:16:44.376Z,0.0000
2019-04-14T03:18:52.705Z,0.0000
2019-04-14T03:20:05.543Z,0.0000
2019-04-14T03:21:15.483Z,0.0000
2019-04-14T03:22:25.984Z,0.0000
2019-04-14T03:23:23.839Z,0.0000
2019-04-14T03:24:31.841Z,0.0000
2019-04-14T03:25:29.589Z,0.0000
2019-04-14T03:26:49.243Z,0.0000
2019-04-14T03:27:54.766Z,0.0000
2019-04-14T03:28:56.645Z,0.0000
2019-04-14T03:30:39.200Z,0.0000
2019-04-14T03:31:43.295Z,0.0000
2019-04-14T03:34:11.209Z,0.0000
2019-04-14T03:34:59.135Z,0.0000
2019-04-14T03:36:17.230Z,0.0000
2019-04-14T03:39:17.565Z,0.0000
2019-04-14T03:40:28.458Z,0.0000
2019-04-14T03:41:31.213Z,0.0000
2019-04-14T03:42:45.828Z,0.0000
2019-04-14T03:43:41.755Z,0.0000
2019-04-14T03:47:13.491Z,0.0000
2019-04-14T03:48:50.316Z,0.0000
2019-04-14T03:51:44.785Z,0.0000
2019-04-14T03:53:53.282Z,0.0000
2019-04-14T03:55:01.471Z,0.0000
2019-04-14T03:55:55.545Z,0.0000
2019-04-14T03:56:59.990Z,0.0000
2019-04-14T03:58:03.684Z,0.0000
2019-04-14T03:59:08.375Z,0.0000
2019-04-14T04:00:11.748Z,0.0000
2019-04-14T04:01:15.105Z,0.0000
2019-04-14T04:02:18.329Z,0.0000
2019-04-14T04:03:21.809Z,0.0000
2019-04-14T04:04:25.464Z,0.0000
2019-04-14T04:05:30.213Z,0.0000
2019-04-14T04:06:33.479Z,0.0000
2019-04-14T04:07:36.507Z,0.0000
2019-04-14T04:08:39.879Z,0.0000
2019-04-14T04:09:43.235Z,0.0000
2019-04-14T04:10:46.519Z,0.0000
2019-04-14T04:11:49.832Z,0.0000
2019-04-14T04:12:53.456Z,0.0000
2019-04-14T04:13:56.409Z,0.0000
2019-04-14T04:14:59.672Z,1.0000
2019-04-14T04:16:02.928Z,1.0000
2019-04-14T04:17:06.303Z,0.0000
2019-04-14T04:18:11.237Z,1.0000
2019-04-14T04:19:17.054Z,1.0000
2019-04-14T04:20:21.736Z,1.0000
2019-04-14T04:21:24.827Z,2.0000
2019-04-14T04:22:28.318Z,2.0000
2019-04-14T04:23:31.438Z,2.0000
2019-04-14T04:24:35.149Z,3.0000
2019-04-14T04:25:38.283Z,4.0000
2019-04-14T04:26:41.285Z,5.0000
2019-04-14T04:27:46.107Z,5.0000
2019-04-14T04:28:49.668Z,6.0000
2019-04-14T04:29:52.692Z,8.0000
2019-04-14T04:30:55.862Z,9.0000
2019-04-14T04:31:59.293Z,9.0000
2019-04-14T04:33:02.385Z,10.0000
2019-04-14T04:34:06.191Z,12.0000
2019-04-14T04:35:10.740Z,13.0000
2019-04-14T04:36:14.273Z,15.0000
2019-04-14T04:37:17.912Z,17.0000
2019-04-14T04:38:22.316Z,19.0000
2019-04-14T04:39:25.746Z,23.0000
2019-04-14T04:40:31.103Z,26.0000
2019-04-14T04:41:34.861Z,30.0000
2019-04-14T04:42:39.407Z,34.0000
2019-04-14T04:43:43.016Z,38.0000
2019-04-14T04:44:46.412Z,42.0000
2019-04-14T04:45:49.558Z,46.0000
2019-04-14T04:46:52.741Z,50.0000
2019-04-14T04:47:56.301Z,56.0000
2019-04-14T04:49:08.280Z,64.0000
2019-04-14T04:50:06.621Z,68.0000
2019-04-14T04:51:09.374Z,70.0000
2019-04-14T04:52:13.934Z,76.0000
2019-04-14T04:53:18.137Z,82.0000
2019-04-14T04:54:21.374Z,87.0000
2019-04-14T04:55:24.312Z,94.0000
2019-04-14T04:56:27.562Z,100.0000
2019-04-14T04:57:30.660Z,102.0000
2019-04-14T04:58:33.341Z,109.0000
2019-04-14T04:59:36.771Z,123.0000
2019-04-14T05:00:40.287Z,139.0000
2019-04-14T05:01:43.289Z,158.0000
2019-04-14T05:02:46.408Z,166.0000
2019-04-14T05:03:49.350Z,172.0000
2019-04-14T05:04:52.675Z,180.0000
2019-04-14T05:05:55.913Z,193.0000
2019-04-14T05:06:59.458Z,210.0000
2019-04-14T05:08:02.393Z,217.0000
2019-04-14T05:09:05.648Z,221.0000
2019-04-14T05:10:08.983Z,232.0000
2019-04-14T05:11:12.979Z,247.0000
2019-04-14T05:12:17.396Z,251.0000
2019-04-14T05:13:20.884Z,254.0000
2019-04-14T05:14:24.285Z,281.0000
2019-04-14T05:15:27.340Z,297.0000
2019-04-14T05:16:31.013Z,301.0000
2019-04-14T05:17:34.385Z,315.0000
2019-04-14T05:18:37.887Z,352.0000
2019-04-14T05:19:42.043Z,371.0000
2019-04-14T05:20:46.498Z,379.0000
2019-04-14T05:21:49.524Z,390.0000
2019-04-14T05:22:53.020Z,425.0000
2019-04-14T05:23:58.069Z,431.0000
2019-04-14T05:25:01.490Z,455.0000
2019-04-14T05:26:04.993Z,470.0000
2019-04-14T05:27:09.945Z,490.0000
2019-04-14T05:28:13.438Z,508.0000
2019-04-14T05:29:16.964Z,500.0000
2019-04-14T05:30:20.304Z,525.0000
2019-04-14T05:31:26.248Z,507.0000
2019-04-14T05:32:32.559Z,506.0000
2019-04-14T05:33:36.010Z,475.0000
2019-04-14T05:34:39.334Z,469.0000
2019-04-14T05:35:42.399Z,489.0000
2019-04-14T05:36:47.863Z,516.0000
2019-04-14T05:37:51.303Z,546.0000
2019-04-14T05:38:54.288Z,569.0000
2019-04-14T05:39:57.297Z,556.0000
2019-04-14T05:41:00.341Z,592.0000
2019-04-14T05:42:10.670Z,589.0000
2019-04-14T05:43:11.430Z,592.0000
2019-04-14T05:44:14.281Z,585.0000
2019-04-14T05:45:17.688Z,583.0000
2019-04-14T05:46:20.692Z,596.0000
2019-04-14T05:47:24.050Z,608.0000
2019-04-14T05:48:27.349Z,595.0000
2019-04-14T05:49:38.177Z,609.0000
2019-04-14T05:50:38.316Z,665.0000
2019-04-14T05:51:41.577Z,678.0000
2019-04-14T05:52:43.306Z,710.0000
2019-04-14T05:53:46.278Z,773.0000
2019-04-14T05:54:50.045Z,837.0000
2019-04-14T05:55:54.632Z,912.0000
2019-04-14T05:56:58.013Z,954.0000
2019-04-14T05:58:01.467Z,1097.0000
2019-04-14T05:59:04.419Z,1230.0000
2019-04-14T06:00:08.183Z,1250.0000
2019-04-14T06:01:11.405Z,1294.0000
2019-04-14T06:02:15.880Z,1254.0000
2019-04-14T06:03:21.358Z,1142.0000
2019-04-14T06:04:30.927Z,1026.0000
2019-04-14T06:05:36.168Z,893.0000
2019-04-14T06:06:39.401Z,825.0000
2019-04-14T06:07:43.037Z,792.0000
2019-04-14T06:08:46.886Z,791.0000
2019-04-14T06:09:50.325Z,795.0000
2019-04-14T06:10:53.270Z,827.0000
2019-04-14T06:11:56.812Z,818.0000
2019-04-14T06:13:00.276Z,780.0000
2019-04-14T06:14:03.294Z,769.0000
2019-04-14T06:15:06.335Z,768.0000
2019-04-14T06:16:09.289Z,794.0000
2019-04-14T06:17:12.314Z,802.0000
2019-04-14T06:18:15.314Z,830.0000
2019-04-14T06:19:18.315Z,944.0000
2019-04-14T06:20:21.306Z,1019.0000
2019-04-14T06:21:24.336Z,1175.0000
2019-04-14T06:22:27.299Z,1316.0000
2019-04-14T06:23:30.299Z,1430.0000
2019-04-14T06:24:33.281Z,1436.0000
2019-04-14T06:25:36.523Z,1338.0000
2019-04-14T06:26:41.285Z,1296.0000
2019-04-14T06:27:44.300Z,1202.0000
2019-04-14T06:28:47.311Z,1045.0000
2019-04-14T06:29:50.279Z,1023.0000
2019-04-14T06:30:53.310Z,1188.0000
2019-04-14T06:31:56.331Z,1294.0000
2019-04-14T06:32:59.310Z,1320.0000
2019-04-14T06:34:02.273Z,1340.0000
2019-04-14T06:35:05.280Z,1260.0000
2019-04-14T06:36:08.970Z,1153.0000
2019-04-14T06:37:12.298Z,1160.0000
2019-04-14T06:38:15.302Z,1183.0000
2019-04-14T06:39:17.311Z,1206.0000
2019-04-14T06:40:20.313Z,1160.0000
2019-04-14T06:41:23.996Z,1172.0000
2019-04-14T06:42:27.946Z,1189.0000
2019-04-14T06:43:31.317Z,1096.0000
2019-04-14T06:44:34.287Z,1042.0000
2019-04-14T06:45:37.277Z,1126.0000
2019-04-14T06:46:40.316Z,1330.0000
2019-04-14T06:47:43.987Z,1429.0000
2019-04-14T06:49:06.646Z,1391.0000
2019-04-14T06:50:09.292Z,1417.0000
2019-04-14T06:51:12.288Z,1311.0000
2019-04-14T06:52:15.287Z,1368.0000
2019-04-14T06:53:18.308Z,1557.0000
2019-04-14T06:54:20.297Z,1647.0000
2019-04-14T06:55:23.307Z,1554.0000
2019-04-14T06:56:26.338Z,1518.0000
2019-04-14T06:57:28.308Z,1576.0000
2019-04-14T06:58:31.296Z,1687.0000
2019-04-14T06:59:33.290Z,1807.0000
2019-04-14T07:00:37.179Z,1678.0000
2019-04-14T07:01:40.378Z,1546.0000
2019-04-14T07:02:45.482Z,1547.0000
2019-04-14T07:03:52.031Z,1734.0000
2019-04-14T07:04:55.312Z,1884.0000
2019-04-14T07:06:00.225Z,2019.0000
2019-04-14T07:07:03.912Z,1875.0000
2019-04-14T07:08:07.320Z,1858.0000
2019-04-14T07:09:12.284Z,1886.0000
2019-04-14T07:10:15.308Z,1866.0000
2019-04-14T07:11:18.287Z,1890.0000
2019-04-14T07:12:20.289Z,1914.0000
2019-04-14T07:13:23.927Z,2209.0000
2019-04-14T07:14:31.963Z,2448.0000
2019-04-14T07:15:36.024Z,2275.0000
2019-04-14T07:16:39.731Z,2201.0000
2019-04-14T07:17:42.911Z,2257.0000
2019-04-14T07:18:46.896Z,2354.0000
2019-04-14T07:20:01.375Z,2410.0000
2019-04-14T07:20:58.297Z,2392.0000
2019-04-14T07:22:01.333Z,2497.0000
2019-04-14T07:23:02.810Z,2841.0000
2019-04-14T07:24:06.359Z,2918.0000
2019-04-14T07:25:12.343Z,2873.0000
2019-04-14T07:26:17.302Z,3418.0000
2019-04-14T07:27:20.300Z,3552.0000
2019-04-14T07:28:23.281Z,3811.0000
2019-04-14T07:29:26.349Z,3853.0000
2019-04-14T07:30:29.318Z,4085.0000
2019-04-14T07:31:32.301Z,4198.0000
2019-04-14T07:32:35.298Z,4308.0000
2019-04-14T07:33:38.295Z,4171.0000
2019-04-14T07:34:41.317Z,4127.0000
2019-04-14T07:35:44.289Z,4658.0000
2019-04-14T07:36:47.273Z,4937.0000
2019-04-14T07:37:50.302Z,4823.0000
2019-04-14T07:38:54.045Z,4080.0000
2019-04-14T07:39:57.957Z,3996.0000
2019-04-14T07:41:01.292Z,3902.0000
2019-04-14T07:42:04.299Z,3603.0000
2019-04-14T07:43:07.281Z,3203.0000
2019-04-14T07:44:10.284Z,3031.0000
2019-04-14T07:45:14.049Z,2718.0000
2019-04-14T07:46:17.904Z,2442.0000
2019-04-14T07:47:21.272Z,2579.0000
2019-04-14T07:48:24.295Z,3007.0000
2019-04-14T07:49:27.285Z,3333.0000
2019-04-14T07:50:30.291Z,3616.0000
2019-04-14T07:51:33.322Z,3641.0000
2019-04-14T07:52:36.286Z,3279.0000
2019-04-14T07:53:39.322Z,2842.0000
2019-04-14T07:54:42.300Z,2522.0000
2019-04-14T07:55:45.275Z,2847.0000
2019-04-14T07:56:48.294Z,2748.0000
2019-04-14T07:57:52.430Z,2764.0000
2019-04-14T07:58:55.905Z,2764.0000
2019-04-14T07:59:59.267Z,3019.0000
2019-04-14T08:01:02.297Z,3643.0000
2019-04-14T08:02:05.279Z,4566.0000
2019-04-14T08:03:08.316Z,4749.0000
2019-04-14T08:04:11.274Z,3855.0000
2019-04-14T08:05:14.323Z,3373.0000
2019-04-14T08:06:17.291Z,3155.0000
2019-04-14T08:07:20.305Z,3184.0000
2019-04-14T08:08:22.295Z,2640.0000
2019-04-14T08:09:25.306Z,2412.0000
2019-04-14T08:10:28.235Z,2464.0000
2019-04-14T08:11:31.864Z,2353.0000
2019-04-14T08:12:35.422Z,2347.0000
2019-04-14T08:13:38.289Z,2531.0000
2019-04-14T08:14:41.301Z,2506.0000
2019-04-14T08:15:45.026Z,2501.0000
2019-04-14T08:16:48.952Z,2654.0000
2019-04-14T08:17:52.268Z,2858.0000
2019-04-14T08:18:57.326Z,2709.0000
2019-04-14T08:20:01.325Z,2652.0000
2019-04-14T08:21:04.282Z,2837.0000
2019-04-14T08:22:07.302Z,3261.0000
2019-04-14T08:23:10.346Z,3469.0000
2019-04-14T08:24:13.298Z,3526.0000
2019-04-14T08:25:16.293Z,3515.0000
2019-04-14T08:26:19.281Z,3173.0000
2019-04-14T08:27:22.333Z,2953.0000
2019-04-14T08:28:25.496Z,3040.0000
2019-04-14T08:29:29.029Z,2906.0000
2019-04-14T08:30:32.204Z,3115.0000
2019-04-14T08:31:35.960Z,3207.0000
2019-04-14T08:32:39.994Z,2974.0000
2019-04-14T08:33:43.313Z,2922.0000
2019-04-14T08:34:46.313Z,2968.0000
2019-04-14T08:35:49.333Z,2955.0000
2019-04-14T08:36:52.297Z,3261.0000
2019-04-14T08:37:55.965Z,3138.0000
2019-04-14T08:38:59.304Z,2952.0000
2019-04-14T08:40:02.305Z,2970.0000
2019-04-14T08:41:06.100Z,3192.0000
2019-04-14T08:42:09.295Z,3635.0000
2019-04-14T08:43:12.322Z,3790.0000
2019-04-14T08:44:15.306Z,3541.0000
2019-04-14T08:45:18.294Z,3454.0000
2019-04-14T08:46:21.294Z,3763.0000
2019-04-14T08:47:24.900Z,4405.0000
2019-04-14T08:48:28.272Z,5046.0000
2019-04-14T08:49:31.292Z,4872.0000
2019-04-14T08:50:39.526Z,4370.0000
2019-04-14T08:51:42.330Z,3959.0000
2019-04-14T08:52:45.959Z,4023.0000
2019-04-14T08:53:49.298Z,4244.0000
2019-04-14T08:54:53.085Z,4459.0000
2019-04-14T08:55:56.327Z,4672.0000
2019-04-14T08:56:59.305Z,5064.0000
2019-04-14T08:58:04.213Z,5098.0000
2019-04-14T08:59:07.354Z,5156.0000
2019-04-14T09:00:10.366Z,5095.0000
2019-04-14T09:01:13.877Z,5294.0000
2019-04-14T09:02:16.948Z,5585.0000
2019-04-14T09:03:20.268Z,5714.0000
2019-04-14T09:04:23.271Z,6738.0000
2019-04-14T09:05:26.135Z,6881.0000
2019-04-14T09:06:29.888Z,7011.0000
2019-04-14T09:07:33.312Z,6800.0000
2019-04-14T09:08:36.342Z,6412.0000
2019-04-14T09:09:39.300Z,7054.0000
2019-04-14T09:10:42.292Z,6850.0000
2019-04-14T09:11:45.295Z,7242.0000
2019-04-14T09:12:48.281Z,7224.0000
2019-04-14T09:13:51.279Z,6917.0000
2019-04-14T09:14:57.284Z,7310.0000
2019-04-14T09:16:00.296Z,7796.0000
2019-04-14T09:17:03.290Z,7828.0000
2019-04-14T09:18:06.314Z,7331.0000
2019-04-14T09:19:09.967Z,6884.0000
2019-04-14T09:20:13.308Z,7057.0000
2019-04-14T09:21:16.297Z,6875.0000
2019-04-14T09:22:19.295Z,6810.0000
2019-04-14T09:23:22.316Z,6819.0000
2019-04-14T09:24:25.301Z,7288.0000
2019-04-14T09:25:28.294Z,7870.0000
2019-04-14T09:26:31.311Z,7939.0000
2019-04-14T09:27:34.334Z,7746.0000
2019-04-14T09:28:37.325Z,7284.0000
2019-04-14T09:29:40.303Z,6718.0000
2019-04-14T09:30:43.300Z,6617.0000
2019-04-14T09:31:46.342Z,6561.0000
2019-04-14T09:32:49.292Z,6998.0000
2019-04-14T09:33:52.341Z,6799.0000
2019-04-14T09:34:55.952Z,6386.0000
2019-04-14T09:35:59.300Z,6206.0000
2019-04-14T09:37:02.298Z,6606.0000
2019-04-14T09:38:05.310Z,7205.0000
2019-04-14T09:39:09.465Z,7974.0000
2019-04-14T09:40:12.937Z,8785.0000
2019-04-14T09:41:16.309Z,8091.0000
2019-04-14T09:42:19.283Z,7537.0000
2019-04-14T09:43:22.947Z,7773.0000
2019-04-14T09:44:26.677Z,8005.0000
2019-04-14T09:45:29.358Z,8482.0000
2019-04-14T09:46:32.977Z,8479.0000
2019-04-14T09:47:36.303Z,9097.0000
2019-04-14T09:48:39.297Z,9418.0000
2019-04-14T09:49:43.058Z,9164.0000
2019-04-14T09:50:46.297Z,8902.0000
2019-04-14T09:51:49.408Z,8811.0000
2019-04-14T09:52:53.159Z,9164.0000
2019-04-14T09:53:57.281Z,10045.0000
2019-04-14T09:55:00.298Z,10507.0000
2019-04-14T09:56:04.293Z,8941.0000
2019-04-14T09:57:07.957Z,9416.0000
2019-04-14T09:58:11.297Z,9948.0000
2019-04-14T09:59:14.850Z,10484.0000
2019-04-14T10:00:18.326Z,10666.0000
2019-04-14T10:01:21.282Z,9405.0000
2019-04-14T10:02:24.291Z,8354.0000
2019-04-14T10:03:27.326Z,7603.0000
2019-04-14T10:04:30.290Z,7206.0000
2019-04-14T10:05:33.295Z,8150.0000
2019-04-14T10:06:36.297Z,9045.0000
2019-04-14T10:07:39.874Z,10403.0000
2019-04-14T10:08:43.284Z,8970.0000
2019-04-14T10:09:46.166Z,7859.0000
2019-04-14T10:10:49.900Z,8778.0000
2019-04-14T10:11:56.311Z,10080.0000
2019-04-14T10:13:00.308Z,8803.0000
2019-04-14T10:14:03.293Z,9074.0000
2019-04-14T10:15:06.304Z,9304.0000
2019-04-14T10:16:09.423Z,11084.0000
2019-04-14T10:17:12.025Z,9993.0000
2019-04-14T10:18:15.283Z,11165.0000
2019-04-14T10:19:20.287Z,11861.0000
2019-04-14T10:20:24.284Z,9303.0000
2019-04-14T10:21:27.293Z,8411.0000
2019-04-14T10:22:34.053Z,10471.0000
2019-04-14T10:23:39.548Z,10817.0000
2019-04-14T10:24:43.331Z,10623.0000
2019-04-14T10:25:46.282Z,8891.0000
2019-04-14T10:26:49.238Z,8628.0000
2019-04-14T10:27:52.905Z,10133.0000
2019-04-14T10:28:56.336Z,10947.0000
2019-04-14T10:29:59.316Z,10603.0000
2019-04-14T10:31:02.996Z,10982.0000
2019-04-14T10:32:06.327Z,13078.0000
2019-04-14T10:33:09.387Z,11113.0000
2019-04-14T10:34:13.074Z,11101.0000
2019-04-14T10:35:16.334Z,11920.0000
2019-04-14T10:36:19.969Z,10700.0000
2019-04-14T10:37:23.296Z,11021.0000
2019-04-14T10:38:26.311Z,12376.0000
2019-04-14T10:39:29.283Z,12627.0000
2019-04-14T10:40:32.287Z,10112.0000
2019-04-14T10:41:35.313Z,9335.0000
2019-04-14T10:42:38.298Z,10018.0000
2019-04-14T10:43:41.294Z,10591.0000
2019-04-14T10:44:44.297Z,8922.0000
2019-04-14T10:45:47.284Z,8338.0000
2019-04-14T10:46:51.117Z,8848.0000
2019-04-14T10:47:54.927Z,9636.0000
2019-04-14T10:48:58.379Z,9818.0000
2019-04-14T10:50:00.741Z,9658.0000
2019-04-14T10:51:04.902Z,10022.0000
2019-04-14T10:52:08.273Z,12277.0000
2019-04-14T10:53:11.336Z,14008.0000
2019-04-14T10:54:14.916Z,13339.0000
2019-04-14T10:55:18.276Z,14728.0000
2019-04-14T10:56:20.290Z,18808.0000
2019-04-14T10:57:23.288Z,19440.0000
2019-04-14T10:58:26.979Z,18168.0000
2019-04-14T10:59:30.354Z,19640.0000
2019-04-14T11:00:33.323Z,20960.0000
2019-04-14T11:01:36.314Z,19520.0000
2019-04-14T11:02:39.446Z,16340.0000
2019-04-14T11:03:42.921Z,15115.0000
2019-04-14T11:04:46.305Z,13858.0000
2019-04-14T11:05:49.294Z,13305.0000
2019-04-14T11:06:52.418Z,12773.0000
2019-04-14T11:07:58.190Z,10185.0000
2019-04-14T11:09:00.298Z,8577.0000
2019-04-14T11:10:03.089Z,7719.0000
2019-04-14T11:11:06.305Z,7705.0000
2019-04-14T11:12:09.271Z,7657.0000
2019-04-14T11:13:13.019Z,7465.0000
2019-04-14T11:14:16.984Z,7040.0000
2019-04-14T11:15:20.299Z,6484.0000
2019-04-14T11:16:22.308Z,7315.0000
2019-04-14T11:17:25.314Z,7979.0000
2019-04-14T11:18:28.296Z,8149.0000
2019-04-14T11:19:34.461Z,9032.0000
2019-04-14T11:20:37.305Z,11760.0000
2019-04-14T11:21:42.706Z,11543.0000
2019-04-14T11:22:46.307Z,9443.0000
2019-04-14T11:23:49.287Z,10539.0000
2019-04-14T11:24:52.278Z,13214.0000
2019-04-14T11:25:55.282Z,14128.0000
2019-04-14T11:26:58.312Z,12226.0000
2019-04-14T11:28:01.302Z,11091.0000
2019-04-14T11:29:04.307Z,11075.0000
2019-04-14T11:30:07.317Z,11892.0000
2019-04-14T11:31:10.304Z,15249.0000
2019-04-14T11:32:14.098Z,16746.0000
2019-04-14T11:33:32.568Z,16515.0000
2019-04-14T11:34:52.727Z,17182.0000
2019-04-14T11:35:56.535Z,17299.0000
2019-04-14T11:36:59.312Z,18856.0000
2019-04-14T11:38:02.289Z,14910.0000
2019-04-14T11:39:04.302Z,11429.0000
2019-04-14T11:40:07.329Z,11839.0000
2019-04-14T11:41:10.299Z,12312.0000
2019-04-14T11:42:13.313Z,11789.0000
2019-04-14T11:43:16.305Z,10400.0000
2019-04-14T11:44:19.038Z,9917.0000
2019-04-14T11:45:22.357Z,10742.0000
2019-04-14T11:46:26.834Z,11935.0000
2019-04-14T11:47:31.161Z,13437.0000
2019-04-14T11:48:34.317Z,14598.0000
2019-04-14T11:49:38.678Z,14958.0000
2019-04-14T11:50:43.050Z,15452.0000
2019-04-14T11:51:55.093Z,16025.0000
2019-04-14T11:52:55.155Z,15217.0000
2019-04-14T11:53:59.223Z,14509.0000
2019-04-14T11:55:03.020Z,14873.0000
2019-04-14T11:56:07.122Z,14391.0000
2019-04-14T11:57:10.273Z,14473.0000
2019-04-14T11:58:13.268Z,16744.0000
2019-04-14T11:59:16.314Z,16542.0000
2019-04-14T12:00:19.291Z,14037.0000
2019-04-14T12:01:23.033Z,11379.0000
2019-04-14T12:02:27.380Z,9457.0000
2019-04-14T12:03:32.342Z,9053.0000
2019-04-14T12:04:35.999Z,9753.0000
2019-04-14T12:05:39.301Z,11254.0000
2019-04-14T12:06:42.311Z,11635.0000
2019-04-14T12:07:46.007Z,11191.0000
2019-04-14T12:08:51.286Z,10185.0000
2019-04-14T12:09:54.317Z,8870.0000
2019-04-14T12:10:58.378Z,8106.0000
2019-04-14T12:12:01.331Z,7924.0000
2019-04-14T12:13:04.339Z,8206.0000
2019-04-14T12:14:07.291Z,8093.0000
2019-04-14T12:15:15.946Z,7856.0000
2019-04-14T12:16:18.307Z,7626.0000
2019-04-14T12:17:21.287Z,7670.0000
2019-04-14T12:18:24.391Z,7350.0000
2019-04-14T12:19:27.323Z,6946.0000
2019-04-14T12:20:30.945Z,6768.0000
2019-04-14T12:21:34.309Z,6806.0000
2019-04-14T12:22:37.284Z,7214.0000
2019-04-14T12:23:41.028Z,8050.0000
2019-04-14T12:24:44.298Z,9123.0000
2019-04-14T12:25:47.949Z,9074.0000
2019-04-14T12:26:51.318Z,7970.0000
2019-04-14T12:27:54.366Z,7500.0000
2019-04-14T12:28:59.188Z,7894.0000
2019-04-14T12:30:04.299Z,8570.0000
2019-04-14T12:31:07.269Z,9044.0000
2019-04-14T12:32:10.744Z,9180.0000
2019-04-14T12:33:14.317Z,9508.0000
2019-04-14T12:34:18.435Z,9744.0000
2019-04-14T12:35:21.286Z,9845.0000
2019-04-14T12:36:24.346Z,10232.0000
2019-04-14T12:37:26.282Z,10825.0000
2019-04-14T12:38:29.288Z,11706.0000
2019-04-14T12:39:32.291Z,12293.0000
2019-04-14T12:40:35.342Z,13215.0000
2019-04-14T12:41:39.955Z,14549.0000
2019-04-14T12:42:43.948Z,14834.0000
2019-04-14T12:43:47.326Z,14151.0000
2019-04-14T12:44:50.786Z,12897.0000
2019-04-14T12:45:54.305Z,12010.0000
2019-04-14T12:46:57.291Z,11578.0000
2019-04-14T12:48:00.392Z,11635.0000